Time;durP1;ratioP1;P1;durP2;ratioP2;P2;SDS_P1;SDS_P2;PMS_P1;PMS_P2;Temp;Humidity;BMP_temperature;BMP_pressure;BME280_temperature;BME280_humidity;BME280_pressure;Samples;Min_cycle;Max_cycle;Signal;HPM_P1;HPM_P2
2023/09/02 00:00:55;;;;;;;12.13;6.43;;;;;;;12.04;100.00;101222.22;5000363;28;20030;-75
2023/09/02 00:03:23;;;;;;;6.47;4.60;;;;;;;11.97;100.00;101214.00;5000636;28;20029;-75
2023/09/02 00:05:48;;;;;;;10.90;6.78;;;;;;;12.07;100.00;101229.94;4998815;28;20037;-75
2023/09/02 00:08:14;;;;;;;8.30;5.20;;;;;;;12.06;100.00;101228.25;4989721;28;20034;-75
2023/09/02 00:10:39;;;;;;;9.50;6.17;;;;;;;11.95;100.00;101225.88;4999212;28;20026;-75
2023/09/02 00:13:04;;;;;;;9.47;6.17;;;;;;;11.92;100.00;101226.19;5001157;28;20095;-75
2023/09/02 00:15:30;;;;;;;8.90;5.90;;;;;;;11.94;100.00;101226.84;4998726;28;20022;-75
2023/09/02 00:17:55;;;;;;;15.00;7.10;;;;;;;11.87;100.00;101229.34;5001306;28;20034;-75
2023/09/02 00:20:21;;;;;;;8.40;5.30;;;;;;;11.80;100.00;101214.91;4982795;28;20030;-75
2023/09/02 00:22:46;;;;;;;8.82;6.57;;;;;;;11.72;100.00;101210.31;4999956;28;20042;-75
2023/09/02 00:25:12;;;;;;;13.85;7.55;;;;;;;11.73;100.00;101214.69;5000611;28;20040;-75
2023/09/02 00:27:37;;;;;;;15.87;8.67;;;;;;;11.78;100.00;101215.03;4980824;28;20490;-75
2023/09/02 00:30:04;;;;;;;16.80;9.93;;;;;;;11.86;100.00;101224.94;4989538;28;20034;-75
2023/09/02 00:32:29;;;;;;;9.93;7.03;;;;;;;11.81;100.00;101219.22;4981467;28;20128;-75
2023/09/02 00:34:54;;;;;;;16.30;7.53;;;;;;;11.80;100.00;101222.91;4982545;28;20108;-75
2023/09/02 00:37:20;;;;;;;12.40;8.20;;;;;;;11.81;100.00;101227.25;4982046;28;20524;-75
2023/09/02 00:39:45;;;;;;;15.97;8.87;;;;;;;11.74;100.00;101224.38;4981567;28;20482;-75
2023/09/02 00:42:13;;;;;;;16.60;9.10;;;;;;;11.80;100.00;101226.44;4973146;28;20087;-75
2023/09/02 00:44:39;;;;;;;17.75;10.88;;;;;;;11.78;100.00;101222.22;4997891;28;20791;-75
2023/09/02 00:47:05;;;;;;;18.42;9.63;;;;;;;11.76;100.00;101222.38;4989181;28;20029;-75
2023/09/02 00:49:34;;;;;;;14.67;9.93;;;;;;;11.79;100.00;101231.94;4998356;28;20050;-75
2023/09/02 00:51:59;;;;;;;15.30;9.20;;;;;;;11.57;100.00;101218.09;4998298;28;20129;-75
2023/09/02 00:54:25;;;;;;;13.43;9.10;;;;;;;11.61;100.00;101229.28;4980835;28;20026;-75
2023/09/02 00:56:51;;;;;;;17.05;10.98;;;;;;;11.64;100.00;101239.69;4997557;28;20425;-75
2023/09/02 00:59:16;;;;;;;19.13;11.73;;;;;;;11.56;100.00;101237.78;4988391;28;20034;-75
2023/09/02 01:01:45;;;;;;;14.55;9.55;;;;;;;11.55;100.00;101235.28;4980826;28;20490;-75
2023/09/02 01:04:10;;;;;;;22.15;9.73;;;;;;;11.55;100.00;101238.81;4988285;28;20038;-75
2023/09/02 01:06:40;;;;;;;13.93;8.73;;;;;;;11.51;100.00;101228.56;4997025;28;20025;-75
2023/09/02 01:09:06;;;;;;;17.55;10.60;;;;;;;11.60;100.00;101243.69;4988916;28;20149;-75
2023/09/02 01:11:35;;;;;;;17.13;9.38;;;;;;;11.49;100.00;101241.25;4963744;28;20034;-75
2023/09/02 01:14:01;;;;;;;15.65;9.20;;;;;;;11.50;100.00;101240.28;4997129;28;20392;-75
2023/09/02 01:16:27;;;;;;;19.00;10.90;;;;;;;11.39;100.00;101236.00;4980448;28;20413;-75
2023/09/02 01:18:52;;;;;;;14.77;10.07;;;;;;;11.45;100.00;101242.56;4998880;28;20125;-75
2023/09/02 01:21:50;;;;;;;19.37;10.77;;;;;;;11.47;100.00;101243.25;4987595;28;20335;-75
2023/09/02 01:24:57;;;;;;;25.27;12.73;;;;;;;11.39;100.00;101252.88;4998047;28;20116;-75
2023/09/02 01:27:39;;;;;;;16.80;10.25;;;;;;;11.38;100.00;101256.56;4967959;28;20041;-75
2023/09/02 01:30:12;;;;;;;14.25;9.27;;;;;;;11.33;100.00;101258.00;4979063;28;20041;-75
2023/09/02 01:32:40;;;;;;;16.90;10.30;;;;;;;11.27;100.00;101258.66;4978991;28;20117;-75
2023/09/02 01:35:07;;;;;;;17.58;10.25;;;;;;;11.20;100.00;101258.41;4987786;28;20543;-74
2023/09/02 01:37:43;;;;;;;17.15;11.32;;;;;;;11.30;100.00;101255.66;4963130;28;20385;-75
2023/09/02 01:40:15;;;;;;;21.52;13.52;;;;;;;11.36;100.00;101269.25;4995390;28;20104;-76
2023/09/02 01:42:43;;;;;;;17.70;11.40;;;;;;;11.33;100.00;101272.25;4995509;28;20044;-75
2023/09/02 01:45:10;;;;;;;17.55;11.57;;;;;;;11.24;100.00;101270.50;4971398;28;20053;-75
2023/09/02 01:47:37;;;;;;;24.20;12.10;;;;;;;11.19;100.00;101264.75;4978683;28;20030;-75
2023/09/02 01:50:06;;;;;;;22.00;12.18;;;;;;;11.14;100.00;101265.22;4999072;28;20026;-75
2023/09/02 01:52:32;;;;;;;26.98;14.70;;;;;;;11.14;100.00;101270.56;4996666;28;20542;-75
2023/09/02 01:54:58;;;;;;;20.35;11.95;;;;;;;11.26;100.00;101278.34;4980587;28;20022;-75
2023/09/02 01:57:24;;;;;;;20.55;13.68;;;;;;;11.23;100.00;101290.19;4979475;28;20026;-75
2023/09/02 01:59:50;;;;;;;27.23;11.63;;;;;;;11.22;100.00;101290.34;4980057;28;20588;-75
2023/09/02 02:02:16;;;;;;;18.90;12.23;;;;;;;11.19;100.00;101296.81;4987323;28;20128;-74
2023/09/02 02:04:48;;;;;;;17.40;11.32;;;;;;;11.23;100.00;101292.84;4978001;28;20567;-75
2023/09/02 02:07:14;;;;;;;29.27;14.73;;;;;;;11.28;100.00;101295.91;4987442;28;20506;-75
2023/09/02 02:09:47;;;;;;;27.02;15.20;;;;;;;11.37;100.00;101294.97;4978340;28;20125;-75
2023/09/02 02:12:13;;;;;;;33.40;15.95;;;;;;;11.33;100.00;101288.28;4998618;28;20497;-75
2023/09/02 02:14:39;;;;;;;29.73;16.83;;;;;;;11.31;100.00;101298.28;4993779;28;20481;-75
2023/09/02 02:17:06;;;;;;;30.97;16.93;;;;;;;11.29;100.00;101294.09;4998626;28;20080;-75
2023/09/02 02:19:32;;;;;;;22.50;13.13;;;;;;;11.28;100.00;101287.03;4964798;28;20132;-75
2023/09/02 02:21:58;;;;;;;23.15;12.27;;;;;;;11.17;100.00;101293.47;4980450;28;20025;-75
2023/09/02 02:24:24;;;;;;;22.33;13.48;;;;;;;11.16;100.00;101294.47;4978989;28;20393;-75
2023/09/02 02:26:53;;;;;;;27.35;14.80;;;;;;;11.09;100.00;101286.19;4996775;28;20046;-75
2023/09/02 02:29:18;;;;;;;26.75;14.32;;;;;;;11.07;100.00;101290.03;4984249;28;20034;-75
2023/09/02 02:31:44;;;;;;;27.13;14.83;;;;;;;11.11;100.00;101291.41;4978268;28;20536;-75
2023/09/02 02:34:09;;;;;;;23.67;14.30;;;;;;;11.17;100.00;101301.50;4974366;28;20389;-74
2023/09/02 02:36:34;;;;;;;30.57;15.37;;;;;;;11.14;100.00;101297.31;4981650;28;20022;-75
2023/09/02 02:39:00;;;;;;;33.23;17.53;;;;;;;11.04;100.00;101298.34;4984403;28;20040;-75
2023/09/02 02:41:25;;;;;;;24.27;14.20;;;;;;;11.06;100.00;101299.03;5002320;28;20101;-75
2023/09/02 02:43:51;;;;;;;27.27;14.07;;;;;;;11.09;100.00;101302.25;4984246;28;20497;-75
2023/09/02 02:46:17;;;;;;;37.97;17.40;;;;;;;11.14;100.00;101313.34;4990216;28;20048;-75
2023/09/02 02:48:42;;;;;;;25.03;14.13;;;;;;;11.07;100.00;101306.06;4981700;28;20042;-75
2023/09/02 02:51:07;;;;;;;25.33;13.47;;;;;;;11.05;100.00;101308.91;4991384;28;20061;-75
2023/09/02 02:53:34;;;;;;;31.40;15.90;;;;;;;11.06;100.00;101309.72;4984481;28;20140;-75
2023/09/02 02:56:02;;;;;;;21.70;13.77;;;;;;;10.97;100.00;101298.94;4983919;28;20108;-75
2023/09/02 02:58:29;;;;;;;28.45;13.90;;;;;;;11.04;100.00;101311.72;4981770;28;20386;-75
2023/09/02 03:01:06;;;;;;;27.55;14.88;;;;;;;10.98;100.00;101307.81;4983098;28;20115;-75
2023/09/02 03:03:32;;;;;;;22.45;12.63;;;;;;;10.97;100.00;101312.31;4981687;28;20030;-75
2023/09/02 03:06:05;;;;;;;27.88;16.83;;;;;;;11.01;100.00;101314.69;4999113;28;20046;-75
2023/09/02 03:08:31;;;;;;;30.60;15.93;;;;;;;11.00;100.00;101305.81;4981472;28;20041;-75
2023/09/02 03:11:01;;;;;;;25.65;13.98;;;;;;;10.94;100.00;101301.94;4982887;28;20034;-75
2023/09/02 03:13:30;;;;;;;29.45;15.18;;;;;;;10.98;100.00;101307.81;4988315;28;20057;-75
2023/09/02 03:15:57;;;;;;;26.85;14.63;;;;;;;10.95;100.00;101300.09;4982440;28;20120;-75
2023/09/02 03:18:23;;;;;;;29.43;15.30;;;;;;;10.96;100.00;101304.47;5000074;28;20049;-75
2023/09/02 03:20:49;;;;;;;;;;;;;;;10.92;100.00;101303.91;4982263;28;20038;-75
2023/09/02 03:23:14;;;;;;;;;;;;;;;10.94;100.00;101293.09;4990928;28;19948;-75
2023/09/02 03:25:41;;;;;;;30.70;16.10;;;;;;;10.84;100.00;101289.63;4979818;28;19921;-75
2023/09/02 03:28:06;;;;;;;30.67;16.33;;;;;;;10.86;100.00;101282.31;4971965;28;20382;-75
2023/09/02 03:30:32;;;;;;;32.08;18.52;;;;;;;10.85;100.00;101289.47;4987760;28;20073;-75
2023/09/02 03:32:58;;;;;;;35.38;18.63;;;;;;;10.90;100.00;101281.84;4998382;28;21107;-75
2023/09/02 03:35:24;;;;;;;52.85;26.73;;;;;;;10.87;100.00;101284.84;4997158;28;20453;-75
2023/09/02 03:37:50;;;;;;;41.67;20.02;;;;;;;10.84;100.00;101290.47;4997821;28;20485;-75
2023/09/02 03:40:16;;;;;;;;;;;;;;;10.87;100.00;101289.34;4974170;28;20084;-75
2023/09/02 03:42:41;;;;;;;67.53;29.95;;;;;;;10.88;100.00;101301.69;4979885;28;19941;-75
2023/09/02 03:45:09;;;;;;;58.85;28.02;;;;;;;10.82;100.00;101296.97;4989030;28;20121;-75
2023/09/02 03:47:36;;;;;;;58.60;28.08;;;;;;;10.91;100.00;101304.91;4979482;28;20114;-74
2023/09/02 03:50:04;;;;;;;59.03;27.40;;;;;;;10.82;100.00;101302.31;4986341;28;20499;-75
2023/09/02 03:52:30;;;;;;;49.90;24.30;;;;;;;10.63;100.00;101290.75;4980677;28;20112;-75
2023/09/02 03:54:56;;;;;;;55.30;25.63;;;;;;;10.60;100.00;101292.88;4980914;28;20125;-75
2023/09/02 03:57:22;;;;;;;69.53;29.13;;;;;;;10.62;100.00;101288.22;4982732;28;20273;-75
2023/09/02 03:59:47;;;;;;;74.47;30.40;;;;;;;10.61;100.00;101289.22;4982611;28;20424;-75
2023/09/02 04:02:16;;;;;;;73.97;30.60;;;;;;;10.55;100.00;101286.13;4990221;28;20025;-74
2023/09/02 04:04:42;;;;;;;50.60;25.50;;;;;;;10.55;100.00;101291.47;4995050;28;20304;-74
2023/09/02 04:07:07;;;;;;;56.97;26.47;;;;;;;10.58;100.00;101301.03;4972846;28;20139;-74
2023/09/02 04:09:35;;;;;;;58.30;27.30;;;;;;;10.56;100.00;101303.84;4997111;28;20033;-74
2023/09/02 04:12:02;;;;;;;57.58;27.52;;;;;;;10.51;100.00;101306.13;4985226;28;20144;-74
2023/09/02 04:14:27;;;;;;;55.30;25.45;;;;;;;10.39;100.00;101307.31;4979491;28;20100;-74
2023/09/02 04:16:53;;;;;;;64.77;30.17;;;;;;;10.51;100.00;101308.81;4996767;28;20525;-74
2023/09/02 04:19:22;;;;;;;61.97;29.25;;;;;;;10.48;100.00;101306.41;4986154;28;20493;-75
2023/09/02 04:21:49;;;;;;;59.63;27.38;;;;;;;10.57;100.00;101316.22;4963622;28;20023;-74
2023/09/02 04:24:14;;;;;;;53.38;25.98;;;;;;;10.53;100.00;101314.81;4972787;28;20026;-74
2023/09/02 04:26:40;;;;;;;71.43;30.00;;;;;;;10.43;100.00;101318.53;4978330;28;20019;-74
2023/09/02 04:29:05;;;;;;;69.63;27.17;;;;;;;10.33;100.00;101314.09;4996385;28;20036;-74
2023/09/02 04:31:31;;;;;;;51.47;25.20;;;;;;;10.33;100.00;101307.91;4979514;28;20030;-75
2023/09/02 04:33:57;;;;;;;39.35;22.02;;;;;;;10.32;100.00;101311.53;4979800;28;20034;-74
2023/09/02 04:36:23;;;;;;;55.00;24.20;;;;;;;10.35;100.00;101317.44;4980027;28;20076;-75
2023/09/02 04:38:51;;;;;;;47.83;21.88;;;;;;;10.40;100.00;101317.00;4979216;28;20061;-75
2023/09/02 04:41:17;;;;;;;51.58;24.13;;;;;;;10.45;100.00;101317.41;4972400;28;20404;-74
2023/09/02 04:43:44;;;;;;;40.58;21.20;;;;;;;10.52;100.00;101323.00;4994280;28;20393;-74
2023/09/02 04:46:11;;;;;;;41.65;21.23;;;;;;;10.53;100.00;101325.50;4974555;28;20711;-75
2023/09/02 04:48:41;;;;;;;47.17;23.88;;;;;;;10.55;100.00;101320.84;4979067;28;20022;-75
2023/09/02 04:51:08;;;;;;;43.22;21.52;;;;;;;10.68;100.00;101333.03;4989124;28;20489;-75
2023/09/02 04:53:33;;;;;;;38.60;20.38;;;;;;;10.66;100.00;101327.00;4984422;28;20029;-74
2023/09/02 04:56:00;;;;;;;62.87;26.07;;;;;;;10.75;100.00;101337.63;4979680;28;20042;-74
2023/09/02 04:58:27;;;;;;;54.42;23.48;;;;;;;10.74;100.00;101330.59;4996419;28;20572;-75
2023/09/02 05:00:52;;;;;;;33.55;19.55;;;;;;;10.78;100.00;101345.31;4995449;28;20792;-75
2023/09/02 05:03:18;;;;;;;44.13;22.65;;;;;;;10.75;100.00;101350.16;4988081;28;20041;-75
2023/09/02 05:05:44;;;;;;;;;;;;;;;10.83;100.00;101363.59;4962188;28;20288;-74
2023/09/02 05:08:11;;;;;;;33.45;19.27;;;;;;;10.86;100.00;101357.94;4989192;28;19917;-74
2023/09/02 05:10:37;;;;;;;40.33;21.92;;;;;;;11.07;100.00;101364.84;4973334;28;20087;-75
2023/09/02 05:13:03;;;;;;;46.90;22.50;;;;;;;11.13;100.00;101358.91;4980678;28;20034;-74
2023/09/02 05:15:29;;;;;;;38.33;20.13;;;;;;;11.13;100.00;101366.94;4988884;28;20017;-75
2023/09/02 05:17:57;;;;;;;50.13;23.40;;;;;;;11.40;100.00;101372.22;4988950;28;20060;-74
2023/09/02 05:20:22;;;;;;;39.72;20.50;;;;;;;11.39;100.00;101380.38;4989341;28;20040;-75
2023/09/02 05:22:47;;;;;;;33.30;19.13;;;;;;;11.51;100.00;101389.00;4980826;28;20116;-75
2023/09/02 05:25:13;;;;;;;48.23;22.83;;;;;;;11.66;100.00;101392.84;4988721;28;20076;-75
2023/09/02 05:27:38;;;;;;;39.63;21.30;;;;;;;11.84;100.00;101400.84;4988881;28;20111;-75
2023/09/02 05:30:05;;;;;;;43.70;23.13;;;;;;;11.89;100.00;101403.06;4989059;28;20014;-75
2023/09/02 05:32:31;;;;;;;37.97;20.80;;;;;;;12.11;100.00;101405.25;4988864;28;20092;-75
2023/09/02 05:34:56;;;;;;;40.93;20.70;;;;;;;12.21;100.00;101403.31;4988158;28;20526;-74
2023/09/02 05:37:22;;;;;;;47.10;24.43;;;;;;;12.45;100.00;101412.50;5006406;28;20048;-74
2023/09/02 05:39:47;;;;;;;43.88;23.75;;;;;;;12.57;100.00;101408.56;4988496;28;20045;-75
2023/09/02 05:42:13;;;;;;;44.63;23.30;;;;;;;12.73;100.00;101401.59;5005895;28;20033;-75
2023/09/02 05:44:38;;;;;;;42.73;22.10;;;;;;;12.76;100.00;101409.31;4988030;28;20584;-75
2023/09/02 05:47:03;;;;;;;40.33;22.63;;;;;;;12.95;100.00;101411.75;4973014;28;20034;-75
2023/09/02 05:49:29;;;;;;;44.33;22.50;;;;;;;13.70;100.00;101427.88;4995091;28;20110;-74
2023/09/02 05:51:54;;;;;;;34.88;18.45;;;;;;;14.88;100.00;101442.69;4977902;28;20117;-75
2023/09/02 05:54:20;;;;;;;22.70;14.30;;;;;;;16.24;100.00;101431.38;4979216;28;20193;-75
2023/09/02 05:56:48;;;;;;;18.73;13.03;;;;;;;16.99;100.00;101397.19;4981623;28;20042;-75
2023/09/02 05:59:13;;;;;;;16.73;11.13;;;;;;;17.72;100.00;101384.47;4997093;28;20064;-76
2023/09/02 06:01:39;;;;;;;13.50;8.57;;;;;;;18.20;100.00;101357.66;4978569;28;20026;-74
2023/09/02 06:04:05;;;;;;;10.13;7.90;;;;;;;19.06;100.00;101335.63;4978612;28;20037;-76
2023/09/02 06:06:30;;;;;;;10.75;6.72;;;;;;;19.52;100.00;101306.94;4962129;28;20026;-75
2023/09/02 06:08:55;;;;;;;8.93;7.17;;;;;;;19.69;100.00;101261.31;4977317;28;20541;-75
2023/09/02 06:11:21;;;;;;;10.50;8.00;;;;;;;20.15;100.00;101228.69;4978131;28;20149;-76
2023/09/02 06:13:46;;;;;;;7.60;6.13;;;;;;;20.11;100.00;101146.16;4977227;28;20045;-75
2023/09/02 06:16:11;;;;;;;10.13;7.22;;;;;;;20.43;100.00;101110.94;4972152;28;20042;-75
2023/09/02 06:18:37;;;;;;;7.23;5.47;;;;;;;20.91;100.00;101037.13;4981048;28;20038;-76
2023/09/02 06:21:12;;;;;;;6.65;5.95;;;;;;;20.79;100.00;100900.53;4979157;28;20030;-76
2023/09/02 06:23:41;;;;;;;8.77;5.90;;;;;;;20.89;100.00;100829.47;4993449;28;20250;-75
2023/09/02 06:26:07;;;;;;;6.28;5.57;;;;;;;20.73;100.00;100703.41;4996507;28;20461;-76
2023/09/02 06:28:33;;;;;;;9.47;5.63;;;;;;;20.75;100.00;100666.03;4976128;28;20038;-76
2023/09/02 06:30:59;;;;;;;8.80;6.47;;;;;;;20.12;100.00;100648.31;4994695;28;20050;-76
2023/09/02 06:33:25;;;;;;;9.57;7.63;;;;;;;19.84;100.00;100655.09;4994912;28;20032;-76
2023/09/02 06:35:50;;;;;;;12.60;6.90;;;;;;;20.38;100.00;100636.28;4994613;28;20526;-75
2023/09/02 06:38:16;;;;;;;7.70;6.32;;;;;;;20.80;100.00;100573.91;4988655;28;20038;-75
2023/09/02 06:40:42;;;;;;;;;;;;;;;21.06;100.00;100589.72;4980527;28;20454;-75
2023/09/02 06:43:07;;;;;;;8.68;6.65;;;;;;;21.01;100.00;100538.06;4997041;28;19948;-75
2023/09/02 06:45:32;;;;;;;8.82;6.28;;;;;;;21.34;100.00;100547.47;4975728;28;20031;-76
2023/09/02 06:47:58;;;;;;;7.77;5.60;;;;;;;21.61;100.00;100432.88;4994822;28;20069;-76
2023/09/02 06:50:23;;;;;;;6.57;5.13;;;;;;;21.63;100.00;100400.84;4977518;28;20069;-76
2023/09/02 06:52:50;;;;;;;8.07;6.20;;;;;;;20.92;100.00;100230.13;4991992;28;20064;-75
2023/09/02 06:55:16;;;;;;;8.10;6.75;;;;;;;20.23;100.00;100417.97;4986694;28;20576;-75
2023/09/02 06:57:44;;;;;;;6.87;4.77;;;;;;;21.01;100.00;100629.50;4993089;28;20025;-76
2023/09/02 07:00:11;;;;;;;7.68;6.72;;;;;;;21.00;100.00;100563.56;4976408;28;20084;-75
2023/09/02 07:02:37;;;;;;;7.68;6.30;;;;;;;20.68;100.00;100492.53;4992499;28;20045;-76
2023/09/02 07:05:02;;;;;;;11.03;5.87;;;;;;;20.49;100.00;100678.88;4978214;28;20026;-76
2023/09/02 07:07:28;;;;;;;7.88;7.07;;;;;;;20.33;100.00;100717.47;4976619;28;20053;-75
2023/09/02 07:09:53;;;;;;;5.72;5.13;;;;;;;20.57;100.00;100819.59;4993649;28;20054;-75
2023/09/02 07:12:19;;;;;;;8.57;5.43;;;;;;;20.54;100.00;100786.66;4995295;28;20030;-76
2023/09/02 07:14:44;;;;;;;6.23;4.37;;;;;;;21.05;100.00;100864.94;4992156;28;20041;-76
2023/09/02 07:17:09;;;;;;;8.60;5.17;;;;;;;20.87;100.00;100686.69;4995477;28;20022;-76
2023/09/02 07:19:35;;;;;;;5.63;4.27;;;;;;;21.16;100.00;100786.47;4997357;28;20453;-76
2023/09/02 07:22:00;;;;;;;7.27;4.57;;;;;;;20.79;100.00;100648.19;4979186;28;20049;-76
2023/09/02 07:24:25;;;;;;;4.80;4.27;;;;;;;20.75;100.00;100704.00;5008465;28;20091;-75
2023/09/02 07:26:51;;;;;;;6.77;4.10;;;;;;;20.21;100.00;100725.53;5008313;28;20048;-76
2023/09/02 07:29:16;;;;;;;7.27;4.17;;;;;;;20.22;100.00;100966.53;4990519;28;20037;-76
2023/09/02 07:31:41;;;;;;;5.23;4.60;;;;;;;19.68;100.00;100902.97;5008596;28;20052;-76
2023/09/02 07:34:06;;;;;;;9.73;4.43;;;;;;;19.54;100.00;101031.34;5008342;28;20164;-75
2023/09/02 07:36:32;;;;;;;7.77;4.30;;;;;;;20.29;100.00;101141.91;5008122;28;20120;-75
2023/09/02 07:38:57;;;;;;;5.07;3.77;;;;;;;20.32;100.00;101033.00;4990976;28;20034;-76
2023/09/02 07:41:23;;;;;;;2.87;2.57;;;;;;;21.16;100.00;101136.69;5008430;28;20069;-76
2023/09/02 07:43:48;;;;;;;5.00;3.53;;;;;;;21.40;100.00;100959.31;4990260;28;20061;-76
2023/09/02 07:46:13;;;;;;;3.60;3.00;;;;;;;21.56;100.00;100794.84;5008194;28;20034;-75
2023/09/02 07:48:38;;;;;;;5.00;2.50;;;;;;;21.18;100.00;100849.50;4990791;28;20026;-75
2023/09/02 07:51:04;;;;;;;6.70;3.60;;;;;;;20.92;100.00;100810.81;5007630;28;20045;-75
2023/09/02 07:53:29;;;;;;;5.67;3.20;;;;;;;21.08;100.00;100901.66;5007917;28;20372;-75
2023/09/02 07:55:55;;;;;;;6.70;3.33;;;;;;;21.43;100.00;100847.50;4987513;28;20041;-76
2023/09/02 07:58:20;;;;;;;3.23;2.83;;;;;;;21.44;100.00;100917.06;4997569;28;20033;-76
2023/09/02 08:00:46;;;;;;;5.20;3.00;;;;;;;21.53;100.00;100756.47;4995661;28;20077;-76
2023/09/02 08:03:11;;;;;;;5.22;2.97;;;;;;;21.84;100.00;100806.94;4964806;28;20030;-75
2023/09/02 08:05:41;;;;;;;4.45;2.83;;;;;;;21.69;100.00;100861.75;4994606;28;20042;-75
2023/09/02 08:08:06;;;;;;;4.05;2.53;;;;;;;22.24;100.00;100866.91;4997412;28;20464;-75
2023/09/02 08:10:33;;;;;;;2.70;1.85;;;;;;;23.09;100.00;100785.69;4995786;28;20057;-75
2023/09/02 08:12:59;;;;;;;3.00;1.83;;;;;;;23.17;100.00;100641.75;4996632;28;20034;-76
2023/09/02 08:15:24;;;;;;;5.10;2.45;;;;;;;23.02;100.00;100282.16;4996120;28;20117;-75
2023/09/02 08:17:50;;;;;;;2.80;1.83;;;;;;;23.03;100.00;100474.38;4995022;28;20572;-75
2023/09/02 08:20:15;;;;;;;3.50;2.43;;;;;;;23.63;100.00;100366.38;4997684;28;20277;-76
2023/09/02 08:22:42;;;;;;;3.88;2.83;;;;;;;23.25;100.00;100277.47;4977527;28;20492;-75
2023/09/02 08:25:09;;;;;;;4.60;2.42;;;;;;;22.73;100.00;100165.38;4980039;28;20042;-75
2023/09/02 08:27:34;;;;;;;3.95;2.00;;;;;;;23.40;100.00;100345.72;4994657;28;20069;-75
2023/09/02 08:30:00;;;;;;;3.80;2.27;;;;;;;23.77;98.15;100154.22;4995984;28;20062;-75
2023/09/02 08:32:29;;;;;;;3.55;1.90;;;;;;;23.59;95.06;99910.25;4977968;28;20484;-75
2023/09/02 08:34:54;;;;;;;2.95;1.92;;;;;;;23.37;93.76;99817.88;4994677;28;20031;-75
2023/09/02 08:37:20;;;;;;;4.13;2.38;;;;;;;23.01;90.86;99559.19;5001278;28;20025;-75
2023/09/02 08:39:50;;;;;;;3.33;2.10;;;;;;;23.30;93.54;99931.69;4993991;28;20076;-75
2023/09/02 08:42:19;;;;;;;4.85;1.85;;;;;;;23.87;89.69;99827.19;4996566;28;20045;-75
2023/09/02 08:44:48;;;;;;;3.55;1.70;;;;;;;24.87;89.00;99980.44;4993711;28;20061;-75
2023/09/02 08:47:20;;;;;;;3.78;1.70;;;;;;;24.88;82.53;99496.16;4969754;28;20096;-75
2023/09/02 08:49:46;;;;;;;3.67;2.65;;;;;;;24.34;82.05;99377.94;4993948;28;20046;-75
2023/09/02 08:52:14;;;;;;;2.83;1.85;;;;;;;24.28;81.48;99374.44;5001742;28;20037;-76
2023/09/02 08:54:41;;;;;;;4.53;1.98;;;;;;;23.82;84.09;99568.28;4991874;28;20552;-75
2023/09/02 08:57:11;;;;;;;3.15;1.70;;;;;;;24.69;85.57;99973.63;4996073;28;20030;-75
2023/09/02 08:59:36;;;;;;;3.25;1.55;;;;;;;24.68;84.27;99869.09;4993622;28;20042;-75
2023/09/02 09:02:02;;;;;;;3.45;2.05;;;;;;;25.09;79.97;99628.63;5000269;28;20041;-75
2023/09/02 09:04:33;;;;;;;3.38;2.00;;;;;;;25.70;81.81;99971.66;4960786;28;20022;-75
2023/09/02 09:07:02;;;;;;;3.45;2.10;;;;;;;25.85;79.18;99765.72;4977122;28;20042;-74
2023/09/02 09:09:28;;;;;;;2.38;1.80;;;;;;;25.84;76.25;99524.31;4994655;28;20037;-75
2023/09/02 09:11:55;;;;;;;;;;;;;;;26.00;75.62;99514.00;4999061;28;20382;-75
2023/09/02 09:14:24;;;;;;;1.60;1.50;;;;;;;26.22;76.31;99693.16;4977440;28;19913;-76
2023/09/02 09:16:55;;;;;;;2.35;1.70;;;;;;;26.43;74.72;99579.59;4993120;28;20085;-75
2023/09/02 09:19:22;;;;;;;3.22;2.03;;;;;;;25.94;75.99;99572.59;4997895;28;20547;-76
2023/09/02 09:21:47;;;;;;;3.72;2.15;;;;;;;25.92;71.47;99120.16;4997741;28;20401;-76
2023/09/02 09:24:12;;;;;;;4.27;1.80;;;;;;;24.99;73.81;99159.16;4995208;28;20036;-75
2023/09/02 09:26:41;;;;;;;2.72;1.80;;;;;;;25.23;74.31;99421.25;4991127;28;20794;-75
2023/09/02 09:29:11;;;;;;;2.75;1.80;;;;;;;25.24;74.96;99494.72;4994869;28;20113;-75
2023/09/02 09:31:36;;;;;;;2.85;1.63;;;;;;;24.57;76.50;99494.50;4975177;28;20053;-73
2023/09/02 09:34:03;;;;;;;4.20;1.77;;;;;;;25.01;73.34;99356.25;4994080;28;20043;-73
2023/09/02 09:36:30;;;;;;;3.58;2.20;;;;;;;25.61;72.90;99470.50;4976180;28;20319;-73
2023/09/02 09:39:00;;;;;;;2.22;1.98;;;;;;;25.14;72.34;99254.47;4992923;28;20088;-75
2023/09/02 09:41:26;;;;;;;6.95;2.20;;;;;;;24.83;71.33;99061.13;4994197;28;20037;-75
2023/09/02 09:44:04;;;;;;;5.75;1.92;;;;;;;24.64;72.96;99243.97;4991417;28;20033;-75
2023/09/02 09:46:35;;;;;;;2.20;1.58;;;;;;;25.25;74.21;99616.50;4997198;28;20040;-75
2023/09/02 09:49:02;;;;;;;4.45;2.25;;;;;;;25.13;72.98;99366.75;4993546;28;20038;-75
2023/09/02 09:51:28;;;;;;;5.07;1.90;;;;;;;25.01;72.79;99389.81;4993170;28;20026;-75
2023/09/02 09:53:54;;;;;;;3.42;1.48;;;;;;;25.33;70.48;99229.91;4979849;28;20019;-75
2023/09/02 09:56:19;;;;;;;3.47;1.55;;;;;;;25.59;70.26;99331.44;4999422;28;20570;-75
2023/09/02 09:58:46;;;;;;;2.70;1.60;;;;;;;25.46;67.80;99016.09;4992059;28;20030;-75
2023/09/02 10:01:20;;;;;;;3.33;1.80;;;;;;;26.56;66.97;99271.56;4994653;28;20124;-75
2023/09/02 10:03:45;;;;;;;3.03;1.80;;;;;;;25.43;66.44;98797.38;4991620;28;20578;-75
2023/09/02 10:06:11;;;;;;;3.17;1.98;;;;;;;26.06;68.31;99312.41;4994637;28;20113;-75
2023/09/02 10:08:53;;;;;;;3.20;1.77;;;;;;;25.52;64.16;98581.59;4974873;28;20034;-75
2023/09/02 10:11:23;;;;;;;2.42;1.77;;;;;;;25.13;67.26;99019.97;4979353;28;20051;-75
2023/09/02 10:13:50;;;;;;;2.75;1.88;;;;;;;25.44;65.61;98837.22;4974386;28;20053;-75
2023/09/02 10:16:16;;;;;;;4.03;1.90;;;;;;;25.87;63.74;98847.72;4994207;28;20029;-75
2023/09/02 10:18:42;;;;;;;4.90;1.50;;;;;;;25.62;64.59;98876.44;4991712;28;20066;-75
2023/09/02 10:21:10;;;;;;;4.25;2.40;;;;;;;25.13;66.16;98968.91;4993745;28;20263;-75
2023/09/02 10:23:38;;;;;;;2.30;1.83;;;;;;;23.90;66.65;98613.06;4974255;28;20053;-74
2023/09/02 10:26:11;;;;;;;3.45;1.85;;;;;;;24.42;69.69;99287.31;4992538;28;20038;-74
2023/09/02 10:28:41;;;;;;;8.18;1.55;;;;;;;25.56;70.22;99643.53;4991521;28;20026;-75
2023/09/02 10:31:36;;;;;;;4.43;2.20;;;;;;;25.28;65.89;98946.78;4993161;28;20035;-75
2023/09/02 10:34:12;;;;;;;2.03;1.60;;;;;;;26.10;63.00;98909.50;4990933;28;20077;-75
2023/09/02 10:36:41;;;;;;;2.35;1.90;;;;;;;26.39;62.16;98902.81;4991391;28;20030;-75
2023/09/02 10:39:13;;;;;;;2.55;1.60;;;;;;;26.92;61.56;98992.31;4997353;28;20058;-75
2023/09/02 10:41:40;;;;;;;2.95;1.98;;;;;;;26.42;60.94;98784.53;4991463;28;20117;-74
2023/09/02 10:44:06;;;;;;;2.40;1.70;;;;;;;26.72;61.96;99083.19;4975082;28;21018;-74
2023/09/02 10:46:32;;;;;;;2.25;1.80;;;;;;;26.75;61.66;99014.13;4974113;28;20030;-75
2023/09/02 10:48:59;;;;;;;5.28;2.17;;;;;;;26.24;61.50;98750.00;4974403;28;20613;-74
2023/09/02 10:51:24;;;;;;;2.90;2.15;;;;;;;26.81;59.61;98768.44;4992810;28;20057;-75
2023/09/02 10:54:00;;;;;;;4.85;1.95;;;;;;;25.12;60.59;98309.31;4990828;28;20468;-75
2023/09/02 10:56:33;;;;;;;2.03;1.83;;;;;;;25.33;61.36;98614.59;4999556;28;20041;-75
2023/09/02 10:59:01;;;;;;;4.15;1.70;;;;;;;26.35;61.19;98959.25;5000974;28;20049;-74
2023/09/02 11:01:41;;;;;;;3.08;2.17;;;;;;;25.96;59.46;98487.75;4998405;28;20021;-75
2023/09/02 11:04:06;;;;;;;4.05;2.10;;;;;;;25.40;60.45;98527.56;5008692;28;20060;-75
2023/09/02 11:06:31;;;;;;;2.00;1.63;;;;;;;26.24;59.84;98824.66;5006271;28;20481;-75
2023/09/02 11:08:57;;;;;;;2.85;1.80;;;;;;;26.09;58.83;98650.88;5005987;28;20459;-75
2023/09/02 11:11:22;;;;;;;3.30;1.65;;;;;;;27.37;57.69;98922.97;5009284;28;20456;-75
2023/09/02 11:14:06;;;;;;;4.28;1.67;;;;;;;26.74;57.49;98561.69;4990879;28;20037;-75